AUA432 EDDS-LOWW
Flight info
| Callsign | AUA432 |
|---|---|
| Flight time | 0h 58m |
| Altitude | 31000 |
| Route | ABTAL4H ABTAL L173 RIXED Y161 RIDAR Z98 MIQ L605 BIBAG Q104 AKIMA DCT MASUR MASUR3W |
| Aircraft | B772/H-SDE2E3FGHIJ5LORVWXY/LB1D1 |
Departure
| Time | 2026-04-26 19:00 |
|---|---|
| Airport | Stuttgart Airport (EDDS) |
Arrival
| Time | 2026-04-26 19:58 |
|---|---|
| Airport | Vienna International Airport (LOWW) |
| Time | Latitude | Longitude | Altitude | Speed | Heading |
|---|---|---|---|---|---|
| 2026-04-26 18:21 | 48.69041 | 9.19982 | 1290 ft | 0 kts | 344° |
| 2026-04-26 18:52 | 48.69021 | 9.19994 | 1290 ft | 4 kts | 334° |
| 2026-04-26 18:52 | 48.69002 | 9.20006 | 1290 ft | 4 kts | 338° |
| 2026-04-26 18:52 | 48.68983 | 9.20016 | 1290 ft | 4 kts | 293° |
| 2026-04-26 18:52 | 48.68986 | 9.20044 | 1290 ft | 3 kts | 244° |
| 2026-04-26 18:53 | 48.68995 | 9.20081 | 1290 ft | 4 kts | 253° |
| 2026-04-26 18:53 | 48.68998 | 9.20093 | 1290 ft | 0 kts | 250° |
| 2026-04-26 18:55 | 48.68997 | 9.20090 | 1290 ft | 2 kts | 250° |
| 2026-04-26 18:56 | 48.68970 | 9.20008 | 1290 ft | 9 kts | 239° |
| 2026-04-26 18:56 | 48.68937 | 9.19929 | 1290 ft | 9 kts | 236° |
| 2026-04-26 18:56 | 48.68886 | 9.19881 | 1290 ft | 10 kts | 183° |
| 2026-04-26 18:56 | 48.68823 | 9.19911 | 1290 ft | 10 kts | 153° |
| 2026-04-26 18:57 | 48.68760 | 9.19949 | 1290 ft | 10 kts | 161° |
| 2026-04-26 18:57 | 48.68723 | 9.19968 | 1290 ft | 8 kts | 161° |
| 2026-04-26 18:57 | 48.68689 | 9.19984 | 1290 ft | 0 kts | 162° |
| 2026-04-26 18:58 | 48.68672 | 9.19993 | 1290 ft | 11 kts | 159° |
| 2026-04-26 18:58 | 48.68614 | 9.20064 | 1290 ft | 11 kts | 124° |
| 2026-04-26 18:59 | 48.68607 | 9.20178 | 1290 ft | 11 kts | 77° |
| 2026-04-26 18:59 | 48.68634 | 9.20330 | 1290 ft | 30 kts | 74° |
| 2026-04-26 18:59 | 48.68776 | 9.21082 | 1290 ft | 121 kts | 74° |
| 2026-04-26 18:59 | 48.69063 | 9.22652 | 1466 ft | 181 kts | 74° |
| 2026-04-26 19:00 | 48.69434 | 9.24592 | 2443 ft | 196 kts | 71° |
| 2026-04-26 19:00 | 48.69820 | 9.26524 | 3692 ft | 190 kts | 73° |
| 2026-04-26 19:00 | 48.70186 | 9.28498 | 4541 ft | 200 kts | 74° |
| 2026-04-26 19:00 | 48.70591 | 9.30632 | 5014 ft | 226 kts | 73° |
| 2026-04-26 19:01 | 48.71078 | 9.33138 | 5021 ft | 263 kts | 73° |
| 2026-04-26 19:01 | 48.71589 | 9.35822 | 5015 ft | 267 kts | 73° |
| 2026-04-26 19:01 | 48.72099 | 9.38534 | 4996 ft | 268 kts | 73° |
| 2026-04-26 19:01 | 48.72610 | 9.41255 | 4990 ft | 268 kts | 74° |
| 2026-04-26 19:02 | 48.73119 | 9.43963 | 4992 ft | 267 kts | 73° |
| 2026-04-26 19:02 | 48.73629 | 9.46674 | 5031 ft | 268 kts | 73° |
| 2026-04-26 19:02 | 48.74144 | 9.49414 | 5781 ft | 272 kts | 73° |
| 2026-04-26 19:02 | 48.74488 | 9.51247 | 6416 ft | 275 kts | 73° |
| 2026-04-26 19:03 | 48.75197 | 9.55022 | 7604 ft | 281 kts | 73° |
| 2026-04-26 19:03 | 48.75736 | 9.57896 | 8479 ft | 285 kts | 73° |
| 2026-04-26 19:03 | 48.76282 | 9.60814 | 9310 ft | 290 kts | 73° |
| 2026-04-26 19:03 | 48.76839 | 9.63789 | 10138 ft | 296 kts | 72° |
| 2026-04-26 19:04 | 48.77410 | 9.66837 | 10648 ft | 310 kts | 73° |
| 2026-04-26 19:04 | 48.78023 | 9.70116 | 10890 ft | 335 kts | 73° |
| 2026-04-26 19:04 | 48.78671 | 9.73590 | 11578 ft | 347 kts | 73° |
| 2026-04-26 19:04 | 48.79330 | 9.77140 | 12551 ft | 353 kts | 73° |
| 2026-04-26 19:05 | 48.80664 | 9.84354 | 14768 ft | 361 kts | 73° |
| 2026-04-26 19:05 | 48.81344 | 9.88046 | 15757 ft | 366 kts | 74° |
| 2026-04-26 19:05 | 48.81835 | 9.91865 | 16746 ft | 373 kts | 83° |
| 2026-04-26 19:06 | 48.81931 | 9.95829 | 17736 ft | 379 kts | 91° |
| 2026-04-26 19:06 | 48.81790 | 9.99843 | 18674 ft | 384 kts | 92° |
| 2026-04-26 19:06 | 48.81643 | 10.03939 | 19472 ft | 390 kts | 92° |
| 2026-04-26 19:06 | 48.81501 | 10.08010 | 20264 ft | 395 kts | 92° |
| 2026-04-26 19:07 | 48.81357 | 10.12203 | 21034 ft | 401 kts | 92° |
| 2026-04-26 19:07 | 48.81214 | 10.16461 | 21789 ft | 407 kts | 92° |
| 2026-04-26 19:07 | 48.81068 | 10.20789 | 22532 ft | 413 kts | 92° |
| 2026-04-26 19:07 | 48.80922 | 10.25166 | 23302 ft | 418 kts | 92° |
| 2026-04-26 19:08 | 48.80773 | 10.29606 | 24040 ft | 423 kts | 92° |
| 2026-04-26 19:08 | 48.80623 | 10.34077 | 24697 ft | 427 kts | 92° |
| 2026-04-26 19:08 | 48.80519 | 10.37121 | 25152 ft | 429 kts | 92° |
| 2026-04-26 19:08 | 48.80366 | 10.41607 | 25819 ft | 433 kts | 92° |
| 2026-04-26 19:09 | 48.80207 | 10.46187 | 26484 ft | 437 kts | 92° |
| 2026-04-26 19:09 | 48.80045 | 10.50810 | 27153 ft | 440 kts | 92° |
| 2026-04-26 19:09 | 48.79881 | 10.55462 | 27819 ft | 444 kts | 92° |
| 2026-04-26 19:09 | 48.79712 | 10.60170 | 28449 ft | 448 kts | 92° |
| 2026-04-26 19:10 | 48.79540 | 10.64884 | 29366 ft | 446 kts | 92° |
| 2026-04-26 19:10 | 48.79368 | 10.69568 | 30372 ft | 442 kts | 92° |
| 2026-04-26 19:10 | 48.79194 | 10.74227 | 31048 ft | 444 kts | 92° |
| 2026-04-26 19:10 | 48.79019 | 10.78903 | 31273 ft | 443 kts | 92° |
| 2026-04-26 19:11 | 48.78844 | 10.83509 | 31246 ft | 441 kts | 92° |
| 2026-04-26 19:11 | 48.78486 | 10.92793 | 31239 ft | 442 kts | 92° |
| 2026-04-26 19:12 | 48.78121 | 11.02097 | 31225 ft | 443 kts | 93° |
| 2026-04-26 19:12 | 48.77745 | 11.11446 | 31216 ft | 444 kts | 93° |
| 2026-04-26 19:13 | 48.77360 | 11.20818 | 31212 ft | 445 kts | 93° |
| 2026-04-26 19:13 | 48.76969 | 11.30174 | 31218 ft | 445 kts | 93° |
| 2026-04-26 19:14 | 48.76571 | 11.39519 | 31214 ft | 444 kts | 93° |
| 2026-04-26 19:14 | 48.76165 | 11.48873 | 31209 ft | 445 kts | 94° |
| 2026-04-26 19:15 | 48.75752 | 11.58198 | 31215 ft | 446 kts | 94° |
| 2026-04-26 19:15 | 48.75329 | 11.67583 | 31214 ft | 447 kts | 94° |
| 2026-04-26 19:16 | 48.74898 | 11.76978 | 31219 ft | 447 kts | 94° |
| 2026-04-26 19:16 | 48.74457 | 11.86431 | 31222 ft | 447 kts | 95° |
| 2026-04-26 19:17 | 48.74010 | 11.95783 | 31229 ft | 449 kts | 95° |
| 2026-04-26 19:17 | 48.73551 | 12.05258 | 31234 ft | 451 kts | 95° |
| 2026-04-26 19:18 | 48.73085 | 12.14730 | 31226 ft | 451 kts | 95° |
| 2026-04-26 19:18 | 48.72611 | 12.24210 | 31229 ft | 450 kts | 95° |
| 2026-04-26 19:19 | 48.72134 | 12.33606 | 31219 ft | 450 kts | 95° |
| 2026-04-26 19:19 | 48.71643 | 12.43090 | 31229 ft | 451 kts | 95° |
| 2026-04-26 19:20 | 48.71145 | 12.52587 | 31226 ft | 452 kts | 96° |
| 2026-04-26 19:20 | 48.70638 | 12.62088 | 31226 ft | 452 kts | 96° |
| 2026-04-26 19:21 | 48.70124 | 12.71585 | 31222 ft | 452 kts | 96° |
| 2026-04-26 19:21 | 48.69602 | 12.81075 | 31221 ft | 452 kts | 96° |
| 2026-04-26 19:22 | 48.69074 | 12.90549 | 31218 ft | 451 kts | 96° |
| 2026-04-26 19:22 | 48.68541 | 12.99958 | 31222 ft | 451 kts | 96° |
| 2026-04-26 19:23 | 48.67996 | 13.09420 | 31223 ft | 452 kts | 96° |
| 2026-04-26 19:23 | 48.67441 | 13.18907 | 31218 ft | 453 kts | 96° |
| 2026-04-26 19:24 | 48.66879 | 13.28404 | 31228 ft | 454 kts | 96° |
| 2026-04-26 19:24 | 48.66018 | 13.42708 | 31223 ft | 455 kts | 96° |
| 2026-04-26 19:25 | 48.65535 | 13.50610 | 31206 ft | 451 kts | 96° |
| 2026-04-26 19:25 | 48.65144 | 13.56940 | 30841 ft | 451 kts | 97° |
| 2026-04-26 19:25 | 48.64849 | 13.61671 | 30431 ft | 454 kts | 97° |
| 2026-04-26 19:26 | 48.64549 | 13.66458 | 29958 ft | 458 kts | 97° |
| 2026-04-26 19:26 | 48.64245 | 13.71263 | 29548 ft | 459 kts | 97° |
| 2026-04-26 19:26 | 48.63939 | 13.76066 | 29208 ft | 458 kts | 96° |
| 2026-04-26 19:26 | 48.63634 | 13.80839 | 28961 ft | 455 kts | 96° |
| 2026-04-26 19:27 | 48.63329 | 13.85590 | 28717 ft | 452 kts | 96° |
| 2026-04-26 19:27 | 48.63024 | 13.90303 | 28465 ft | 449 kts | 96° |
| 2026-04-26 19:27 | 48.62718 | 13.94997 | 28205 ft | 447 kts | 96° |
| 2026-04-26 19:27 | 48.62412 | 13.99676 | 27931 ft | 445 kts | 96° |
| 2026-04-26 19:28 | 48.62105 | 14.04314 | 27681 ft | 443 kts | 96° |
| 2026-04-26 19:28 | 48.61798 | 14.08934 | 27462 ft | 441 kts | 96° |
| 2026-04-26 19:28 | 48.61491 | 14.13543 | 27210 ft | 439 kts | 96° |
| 2026-04-26 19:28 | 48.61183 | 14.18115 | 26964 ft | 437 kts | 96° |
| 2026-04-26 19:29 | 48.60878 | 14.22626 | 26654 ft | 437 kts | 96° |
| 2026-04-26 19:29 | 48.60567 | 14.27195 | 26120 ft | 437 kts | 96° |
| 2026-04-26 19:29 | 48.60256 | 14.31738 | 25563 ft | 434 kts | 96° |
| 2026-04-26 19:29 | 48.59941 | 14.36308 | 25039 ft | 430 kts | 96° |
| 2026-04-26 19:30 | 48.59634 | 14.40732 | 24523 ft | 427 kts | 96° |
| 2026-04-26 19:30 | 48.59324 | 14.45186 | 24018 ft | 424 kts | 96° |
| 2026-04-26 19:30 | 48.59015 | 14.49610 | 23440 ft | 422 kts | 96° |
| 2026-04-26 19:30 | 48.58805 | 14.52585 | 23044 ft | 420 kts | 96° |
| 2026-04-26 19:31 | 48.58396 | 14.58372 | 22271 ft | 416 kts | 96° |
| 2026-04-26 19:31 | 48.58087 | 14.62701 | 21701 ft | 414 kts | 96° |
| 2026-04-26 19:31 | 48.57778 | 14.67001 | 21137 ft | 411 kts | 96° |
| 2026-04-26 19:31 | 48.57469 | 14.71282 | 20577 ft | 408 kts | 96° |
| 2026-04-26 19:32 | 48.57161 | 14.75531 | 20039 ft | 406 kts | 96° |
| 2026-04-26 19:32 | 48.56854 | 14.79755 | 19522 ft | 403 kts | 96° |
| 2026-04-26 19:32 | 48.56547 | 14.83944 | 19002 ft | 401 kts | 95° |
| 2026-04-26 19:32 | 48.56241 | 14.88119 | 18479 ft | 399 kts | 95° |
| 2026-04-26 19:33 | 48.55935 | 14.92267 | 17893 ft | 397 kts | 95° |
| 2026-04-26 19:33 | 48.55630 | 14.96385 | 17449 ft | 392 kts | 95° |
| 2026-04-26 19:33 | 48.55329 | 15.00419 | 17263 ft | 380 kts | 95° |
| 2026-04-26 19:33 | 48.55034 | 15.04341 | 17251 ft | 374 kts | 95° |
| 2026-04-26 19:34 | 48.54741 | 15.08245 | 17255 ft | 374 kts | 95° |
| 2026-04-26 19:34 | 48.54449 | 15.12114 | 17251 ft | 375 kts | 95° |
| 2026-04-26 19:34 | 48.54153 | 15.16022 | 17253 ft | 375 kts | 95° |
| 2026-04-26 19:34 | 48.53855 | 15.19935 | 17253 ft | 375 kts | 95° |
| 2026-04-26 19:35 | 48.53555 | 15.23855 | 17255 ft | 376 kts | 95° |
| 2026-04-26 19:35 | 48.53254 | 15.27777 | 17246 ft | 376 kts | 95° |
| 2026-04-26 19:35 | 48.52922 | 15.31700 | 16956 ft | 378 kts | 98° |
| 2026-04-26 19:35 | 48.52290 | 15.35559 | 16467 ft | 377 kts | 105° |
| 2026-04-26 19:36 | 48.51536 | 15.39342 | 16000 ft | 375 kts | 105° |
| 2026-04-26 19:36 | 48.51030 | 15.41885 | 15672 ft | 374 kts | 105° |
| 2026-04-26 19:36 | 48.50041 | 15.46896 | 15038 ft | 371 kts | 105° |
| 2026-04-26 19:36 | 48.49325 | 15.50566 | 14602 ft | 368 kts | 105° |
| 2026-04-26 19:37 | 48.48607 | 15.54262 | 14161 ft | 366 kts | 104° |
| 2026-04-26 19:37 | 48.47884 | 15.57988 | 13657 ft | 364 kts | 104° |
| 2026-04-26 19:37 | 48.47190 | 15.61577 | 13315 ft | 358 kts | 104° |
| 2026-04-26 19:37 | 48.46504 | 15.65111 | 13244 ft | 343 kts | 104° |
| 2026-04-26 19:38 | 48.45849 | 15.68482 | 13234 ft | 327 kts | 104° |
| 2026-04-26 19:38 | 48.45221 | 15.71704 | 13243 ft | 316 kts | 104° |
| 2026-04-26 19:38 | 48.44606 | 15.74868 | 13246 ft | 314 kts | 104° |
| 2026-04-26 19:38 | 48.43982 | 15.78074 | 13174 ft | 316 kts | 104° |
| 2026-04-26 19:39 | 48.43356 | 15.81293 | 12726 ft | 323 kts | 104° |
| 2026-04-26 19:39 | 48.42723 | 15.84533 | 12140 ft | 329 kts | 105° |
| 2026-04-26 19:39 | 48.42074 | 15.87852 | 11571 ft | 333 kts | 105° |
| 2026-04-26 19:39 | 48.41415 | 15.91211 | 11023 ft | 337 kts | 105° |
| 2026-04-26 19:40 | 48.40747 | 15.94607 | 10465 ft | 340 kts | 105° |
| 2026-04-26 19:40 | 48.40062 | 15.98085 | 9895 ft | 343 kts | 105° |
| 2026-04-26 19:40 | 48.39382 | 16.01530 | 9294 ft | 344 kts | 105° |
| 2026-04-26 19:40 | 48.38699 | 16.04985 | 8840 ft | 343 kts | 106° |
| 2026-04-26 19:41 | 48.38027 | 16.08374 | 8771 ft | 333 kts | 106° |
| 2026-04-26 19:41 | 48.37366 | 16.11702 | 8697 ft | 322 kts | 106° |
| 2026-04-26 19:41 | 48.36730 | 16.14901 | 8320 ft | 320 kts | 105° |
| 2026-04-26 19:41 | 48.36522 | 16.15945 | 8197 ft | 320 kts | 105° |
| 2026-04-26 19:42 | 48.35480 | 16.21175 | 7980 ft | 302 kts | 105° |
| 2026-04-26 19:42 | 48.34889 | 16.24135 | 7967 ft | 292 kts | 105° |
| 2026-04-26 19:42 | 48.34307 | 16.27048 | 7984 ft | 291 kts | 106° |
| 2026-04-26 19:42 | 48.33723 | 16.29963 | 7971 ft | 292 kts | 105° |
| 2026-04-26 19:43 | 48.33135 | 16.32899 | 7831 ft | 295 kts | 106° |
| 2026-04-26 19:43 | 48.32536 | 16.35891 | 7305 ft | 303 kts | 106° |
| 2026-04-26 19:43 | 48.32128 | 16.37928 | 6900 ft | 310 kts | 106° |
| 2026-04-26 19:43 | 48.31501 | 16.41039 | 6220 ft | 307 kts | 106° |
| 2026-04-26 19:44 | 48.30884 | 16.44093 | 5525 ft | 295 kts | 105° |
| 2026-04-26 19:44 | 48.30298 | 16.46987 | 4886 ft | 284 kts | 105° |
| 2026-04-26 19:44 | 48.29663 | 16.49732 | 4211 ft | 275 kts | 116° |
| 2026-04-26 19:44 | 48.28411 | 16.51835 | 3532 ft | 270 kts | 142° |
| 2026-04-26 19:45 | 48.26914 | 16.53408 | 3188 ft | 253 kts | 141° |
| 2026-04-26 19:45 | 48.25562 | 16.54926 | 3000 ft | 241 kts | 140° |
| 2026-04-26 19:45 | 48.24233 | 16.56439 | 2997 ft | 235 kts | 140° |
| 2026-04-26 19:45 | 48.22931 | 16.57917 | 3000 ft | 234 kts | 140° |
| 2026-04-26 19:46 | 48.21629 | 16.59388 | 2993 ft | 234 kts | 140° |
| 2026-04-26 19:46 | 48.20324 | 16.60859 | 3004 ft | 235 kts | 140° |
| 2026-04-26 19:46 | 48.19019 | 16.62330 | 3005 ft | 234 kts | 139° |
| 2026-04-26 19:46 | 48.17963 | 16.64085 | 2996 ft | 223 kts | 114° |
| 2026-04-26 19:47 | 48.17308 | 16.66219 | 3014 ft | 230 kts | 111° |
| 2026-04-26 19:47 | 48.16849 | 16.67661 | 3006 ft | 231 kts | 112° |
| 2026-04-26 19:47 | 48.15926 | 16.70467 | 2991 ft | 217 kts | 113° |
| 2026-04-26 19:47 | 48.15275 | 16.72439 | 2987 ft | 208 kts | 112° |
| 2026-04-26 19:48 | 48.14633 | 16.74386 | 2986 ft | 207 kts | 112° |
| 2026-04-26 19:48 | 48.13997 | 16.76319 | 2991 ft | 207 kts | 112° |
| 2026-04-26 19:48 | 48.13355 | 16.78259 | 2991 ft | 208 kts | 112° |
| 2026-04-26 19:48 | 48.12713 | 16.80198 | 3002 ft | 208 kts | 113° |
| 2026-04-26 19:49 | 48.12070 | 16.82135 | 3010 ft | 208 kts | 112° |
| 2026-04-26 19:49 | 48.11426 | 16.84076 | 3000 ft | 209 kts | 112° |
| 2026-04-26 19:49 | 48.10778 | 16.86028 | 3000 ft | 209 kts | 113° |
| 2026-04-26 19:49 | 48.10133 | 16.87968 | 2990 ft | 206 kts | 113° |
| 2026-04-26 19:50 | 48.09513 | 16.89828 | 2977 ft | 194 kts | 112° |
| 2026-04-26 19:50 | 48.08917 | 16.91594 | 2975 ft | 187 kts | 116° |
| 2026-04-26 19:50 | 48.07985 | 16.92954 | 2985 ft | 196 kts | 154° |
| 2026-04-26 19:50 | 48.06634 | 16.93184 | 3024 ft | 197 kts | 193° |
| 2026-04-26 19:51 | 48.05417 | 16.92427 | 2994 ft | 184 kts | 206° |
| 2026-04-26 19:51 | 48.04308 | 16.91542 | 2999 ft | 181 kts | 220° |
| 2026-04-26 19:51 | 48.03680 | 16.89999 | 2980 ft | 171 kts | 262° |
| 2026-04-26 19:51 | 48.03541 | 16.88286 | 2985 ft | 164 kts | 266° |
| 2026-04-26 19:52 | 48.03378 | 16.86614 | 2979 ft | 161 kts | 265° |
| 2026-04-26 19:52 | 48.03215 | 16.84959 | 3018 ft | 162 kts | 265° |
| 2026-04-26 19:52 | 48.03057 | 16.83280 | 3002 ft | 163 kts | 268° |
| 2026-04-26 19:52 | 48.03213 | 16.81682 | 2984 ft | 150 kts | 297° |
| 2026-04-26 19:53 | 48.03597 | 16.80262 | 2997 ft | 146 kts | 296° |
| 2026-04-26 19:53 | 48.03994 | 16.78865 | 2995 ft | 146 kts | 298° |
| 2026-04-26 19:53 | 48.04408 | 16.77522 | 2987 ft | 137 kts | 300° |
| 2026-04-26 19:53 | 48.04809 | 16.76263 | 3000 ft | 132 kts | 301° |
| 2026-04-26 19:54 | 48.05212 | 16.75018 | 2994 ft | 134 kts | 301° |
| 2026-04-26 19:54 | 48.05621 | 16.73761 | 2987 ft | 136 kts | 301° |
| 2026-04-26 19:54 | 48.06040 | 16.72479 | 2805 ft | 137 kts | 301° |
| 2026-04-26 19:54 | 48.06452 | 16.71213 | 2613 ft | 134 kts | 301° |
| 2026-04-26 19:55 | 48.06854 | 16.69980 | 2446 ft | 134 kts | 301° |
| 2026-04-26 19:55 | 48.07270 | 16.68710 | 2264 ft | 135 kts | 301° |
| 2026-04-26 19:55 | 48.07678 | 16.67457 | 2090 ft | 136 kts | 301° |
| 2026-04-26 19:55 | 48.08090 | 16.66190 | 1894 ft | 135 kts | 301° |
| 2026-04-26 19:56 | 48.08499 | 16.64935 | 1711 ft | 133 kts | 301° |
| 2026-04-26 19:56 | 48.08905 | 16.63693 | 1529 ft | 133 kts | 300° |
| 2026-04-26 19:56 | 48.09304 | 16.62463 | 1352 ft | 130 kts | 300° |
| 2026-04-26 19:56 | 48.09697 | 16.61260 | 1172 ft | 127 kts | 298° |
| 2026-04-26 19:57 | 48.10083 | 16.60072 | 998 ft | 126 kts | 297° |
| 2026-04-26 19:57 | 48.10469 | 16.58885 | 828 ft | 127 kts | 296° |
| 2026-04-26 19:57 | 48.10855 | 16.57700 | 673 ft | 127 kts | 296° |
| 2026-04-26 19:57 | 48.11232 | 16.56555 | 635 ft | 112 kts | 295° |
| 2026-04-26 19:58 | 48.11521 | 16.55672 | 633 ft | 76 kts | 296° |
| 2026-04-26 19:58 | 48.11702 | 16.55126 | 620 ft | 41 kts | 296° |
| 2026-04-26 19:58 | 48.11797 | 16.54848 | 623 ft | 16 kts | 302° |
| 2026-04-26 19:58 | 48.11872 | 16.54698 | 627 ft | 20 kts | 313° |
| 2026-04-26 19:59 | 48.11969 | 16.54546 | 627 ft | 20 kts | 322° |
| 2026-04-26 19:59 | 48.12022 | 16.54530 | 621 ft | 1 kts | 4° |
| 2026-04-26 19:59 | 48.12036 | 16.54535 | 621 ft | 3 kts | 12° |
| 2026-04-26 19:59 | 48.12058 | 16.54559 | 626 ft | 5 kts | 57° |
| 2026-04-26 20:00 | 48.12048 | 16.54692 | 623 ft | 21 kts | 108° |
| 2026-04-26 20:00 | 48.12002 | 16.54851 | 623 ft | 21 kts | 114° |
| 2026-04-26 20:00 | 48.11941 | 16.55052 | 625 ft | 21 kts | 119° |
| 2026-04-26 20:00 | 48.11870 | 16.55244 | 625 ft | 21 kts | 118° |
| 2026-04-26 20:01 | 48.11805 | 16.55440 | 624 ft | 21 kts | 116° |
| 2026-04-26 20:01 | 48.11745 | 16.55640 | 627 ft | 21 kts | 114° |
| 2026-04-26 20:01 | 48.11680 | 16.55833 | 631 ft | 21 kts | 118° |
| 2026-04-26 20:01 | 48.11613 | 16.56028 | 626 ft | 21 kts | 116° |
| 2026-04-26 20:02 | 48.11551 | 16.56226 | 630 ft | 21 kts | 113° |
| 2026-04-26 20:02 | 48.11492 | 16.56430 | 618 ft | 22 kts | 117° |
| 2026-04-26 20:02 | 48.11419 | 16.56630 | 625 ft | 22 kts | 118° |
| 2026-04-26 20:02 | 48.11374 | 16.56764 | 632 ft | 22 kts | 116° |
| 2026-04-26 20:03 | 48.11296 | 16.57022 | 637 ft | 13 kts | 115° |
| 2026-04-26 20:03 | 48.11257 | 16.57144 | 635 ft | 13 kts | 116° |
| 2026-04-26 20:03 | 48.11249 | 16.57166 | 633 ft | 2 kts | 116° |
| 2026-04-26 20:03 | 48.11285 | 16.57306 | 630 ft | 23 kts | 35° |
| 2026-04-26 20:04 | 48.11335 | 16.57349 | 630 ft | 1 kts | 28° |
| 2026-04-26 20:04 | 48.11348 | 16.57360 | 630 ft | 4 kts | 28° |
| 2026-04-26 20:04 | 48.11367 | 16.57375 | 629 ft | 1 kts | 27° |
| 2026-04-26 20:04 | 48.11389 | 16.57391 | 631 ft | 6 kts | 26° |
| 2026-04-26 20:05 | 48.11453 | 16.57432 | 620 ft | 13 kts | 19° |
| 2026-04-26 20:05 | 48.11482 | 16.57447 | 613 ft | 0 kts | 19° |
| 2026-04-26 20:05 | 48.11484 | 16.57448 | 613 ft | 0 kts | 18° |
| 2026-04-26 20:05 | 48.11537 | 16.57454 | 624 ft | 12 kts | 356° |
| 2026-04-26 20:06 | 48.11601 | 16.57434 | 627 ft | 9 kts | 345° |
| 2026-04-26 20:06 | 48.11664 | 16.57405 | 620 ft | 10 kts | 342° |
| 2026-04-26 20:06 | 48.11735 | 16.57368 | 621 ft | 12 kts | 341° |
| 2026-04-26 20:06 | 48.11817 | 16.57311 | 619 ft | 14 kts | 312° |
| 2026-04-26 20:07 | 48.11864 | 16.57185 | 623 ft | 14 kts | 296° |
| 2026-04-26 20:07 | 48.11898 | 16.57082 | 616 ft | 10 kts | 296° |
| 2026-04-26 20:07 | 48.11914 | 16.57034 | 616 ft | 1 kts | 296° |
| 2026-04-26 20:07 | 48.11918 | 16.57020 | 620 ft | 2 kts | 296° |
| 2026-04-26 20:08 | 48.11925 | 16.56999 | 618 ft | 0 kts | 296° |
| 2026-04-26 20:08 | 48.11926 | 16.56997 | 618 ft | 1 kts | 296° |
| 2026-04-26 20:08 | 48.11931 | 16.56981 | 607 ft | 0 kts | 297° |
| 2026-04-26 20:09 | 48.11940 | 16.56953 | 603 ft | 6 kts | 296° |
| 2026-04-26 20:09 | 48.11953 | 16.56901 | 603 ft | 5 kts | 275° |
| 2026-04-26 20:09 | 48.11931 | 16.56863 | 603 ft | 5 kts | 214° |
| 2026-04-26 20:09 | 48.11893 | 16.56832 | 615 ft | 5 kts | 202° |
| 2026-04-26 20:10 | 48.11884 | 16.56827 | 617 ft | 0 kts | 200° |
| 2026-04-26 20:10 | 48.11883 | 16.56827 | 617 ft | 0 kts | 201° |